Flight Track Log - Related Links

Times and Time Zones

All times are in EDT time to prevent confusion due to time zone crossing. See the SKW6306 flight status page for this flight to view local times or setup timezone preferences in your user account.

Time Position Orientation Groundspeed Altitude Reporting Facility
EDT Latitude Longitude Course Direction KTS MPH feet Rate Location/Type
Sun 02:01:51 PM 39.8833 -104.5667 348° North 200 230 6,900  Level Denver TRACON
Sun 02:02:51 PM 39.9000 -104.4833 75° East 248 285 8,500 1,488 Climbing Denver TRACON
Sun 02:03:52 PM 39.9333 -104.4000 62° Northeast 306 352 9,900 1,736 Climbing Denver TRACON
Sun 02:04:52 PM 40.0167 -104.3833 North 307 353 12,000 1,945 Climbing Denver TRACON
Sun 02:06:17 PM 40.1250 -104.4431 337° Northwest 302 348 14,600 1,673 Climbing Denver Center
Sun 02:07:00 PM 40.5221 -104.8849 348° North  Level FlightAware
Sun 02:07:19 PM 40.2075 -104.4933 335° Northwest 303 349 16,100  Level Denver Center
Sun 02:08:21 PM 40.2911 -104.5444 335° Northwest 329 379 17,300 1,016 Climbing Denver Center
Sun 02:09:23 PM 40.3761 -104.5961 335° Northwest 339 390 18,200 919 Climbing Denver Center
Sun 02:10:25 PM 40.4750 -104.6578 335° Northwest 364 419 19,200 871 Climbing Denver Center
Sun 02:11:27 PM 40.5697 -104.7164 335° Northwest 374 430 20,000 774 Climbing Denver Center
Sun 02:12:29 PM 40.6761 -104.7819 335° Northwest 394 453 20,800 726 Climbing Denver Center
Sun 02:13:31 PM 40.7656 -104.8381 335° Northwest 383 441 21,500 780 Climbing Denver Center
Sun 02:14:32 PM 40.8692 -104.8903 339° North 398 458 22,400 878 Climbing Denver Center
Sun 02:15:34 PM 40.9944 -104.9506 340° North 402 463 23,300 823 Climbing Denver Center
Sun 02:16:36 PM 41.0942 -104.9994 340° North 399 459 24,100 774 Climbing Denver Center
Sun 02:17:38 PM 41.1942 -105.0486 340° North 400 460 24,900 823 Climbing Denver Center
Sun 02:18:40 PM 41.3100 -105.1072 339° North 398 458 25,800 774 Climbing Denver Center
Sun 02:19:42 PM 41.4083 -105.1553 340° North 395 455 26,500 677 Climbing Denver Center
Sun 02:20:44 PM 41.5242 -105.2156 339° North 399 459 27,200 581 Climbing Denver Center
Sun 02:21:46 PM 41.6297 -105.2508 346° North 409 471 27,700 532 Climbing Denver Center
Sun 02:22:48 PM 41.7561 -105.2711 353° North 409 471 28,300 532 Climbing Denver Center
Sun 02:23:50 PM 41.8658 -105.2933 351° North 415 478 28,800 488 Climbing Denver Center
Sun 02:24:51 PM 41.9744 -105.3142 352° North 414 476 29,300 488 Climbing Denver Center
Sun 02:25:53 PM 42.1019 -105.3369 352° North 412 474 29,800 480 Climbing Denver Center
Sun 02:26:56 PM 42.2108 -105.3575 352° North 411 473 30,300 532 Climbing Denver Center
Sun 02:27:57 PM 42.3389 -105.3822 352° North 414 476 30,900 537 Climbing Denver Center
Sun 02:28:59 PM 42.4458 -105.4019 352° North 406 467 31,400 484 Climbing Denver Center
Sun 02:30:01 PM 42.5717 -105.4267 352° North 406 467 31,900 290 Climbing Denver Center
Sun 02:31:03 PM 42.6814 -105.4478 352° North 410 472 32,000 48 Climbing Denver Center
Sun 02:32:05 PM 42.7936 -105.4697 352° North 419 482 32,000  Level Denver Center
Sun 02:33:06 PM 42.9264 -105.4961 352° North 424 488 32,000  Level Denver Center
Sun 02:34:08 PM 43.0417 -105.5181 352° North 430 495 32,000  Level Denver Center
Sun 02:35:11 PM 43.1761 -105.5436 352° North 434 499 32,000  Level Denver Center
Sun 02:36:12 PM 43.2906 -105.5661 352° North 434 499 32,000  Level Denver Center
Sun 02:37:14 PM 43.4225 -105.5922 352° North 429 494 32,000  Level Denver Center
Sun 02:38:16 PM 43.5353 -105.6142 352° North 427 491 32,000  Level Denver Center
Sun 02:39:18 PM 43.6656 -105.6400 352° North 425 489 32,000  Level Denver Center
Sun 02:40:20 PM 43.7781 -105.6619 352° North 424 488 32,000  Level Denver Center
Sun 02:41:22 PM 43.8892 -105.6844 352° North 423 487 32,000  Level Denver Center
Sun 02:42:24 PM 44.0183 -105.7111 352° North 421 484 32,000  Level Denver Center
Sun 02:43:26 PM 44.1283 -105.7350 351° North 419 482 32,000  Level Denver Center
Sun 02:44:28 PM 44.2575 -105.7594 352° North 419 482 32,000  Level Denver Center
Sun 02:45:30 PM 44.3678 -105.7808 352° North 418 481 32,000  Level Denver Center
Sun 02:46:25 PM 44.4775 -105.8053 351° North 415 478 32,000  Level Salt Center
Sun 02:47:27 PM 44.5869 -105.8269 352° North 413 475 32,000  Level Salt Center
Sun 02:48:29 PM 44.7136 -105.8519 352° North 413 475 32,000  Level Salt Center
Sun 02:49:31 PM 44.8214 -105.8758 351° North 410 472 32,000  Level Salt Center
Sun 02:50:32 PM 44.9472 -105.9003 352° North 409 471 32,000  Level Salt Center
Sun 02:51:34 PM 45.0544 -105.9258 350° North 409 471 32,000  Level Salt Center
Sun 02:52:36 PM 45.1803 -105.9494 352° North 408 470 32,000  Level Salt Center
Sun 02:53:38 PM 45.2892 -105.9744 351° North 408 470 32,000  Level Salt Center
Sun 02:54:40 PM 45.4022 -105.9972 352° North 409 471 32,000  Level Salt Center
Sun 02:55:42 PM 45.5142 -106.0203 352° North 409 471 32,000  Level Salt Center
Sun 02:56:44 PM 45.6253 -106.0442 351° North 405 466 32,000  Level Salt Center
Sun 02:57:46 PM 45.7367 -106.0658 352° North 404 465 32,000  Level Salt Center
Sun 02:58:48 PM 45.8681 -106.0919 352° North 402 463 32,000  Level Salt Center
Sun 02:59:50 PM 45.9786 -106.1153 352° North 400 460 32,000  Level Salt Center
Sun 03:00:52 PM 46.0903 -106.1406 351° North 401 461 32,000  Level Salt Center
Sun 03:01:54 PM 46.2014 -106.1656 351° North 403 464 32,000  Level Salt Center
Sun 03:02:56 PM 46.3108 -106.1906 351° North 402 463 32,000  Level Salt Center
Sun 03:03:58 PM 46.4206 -106.2150 351° North 401 461 32,000  Level Salt Center
Sun 03:04:59 PM 46.5283 -106.2389 351° North 398 458 32,000  Level Salt Center
Sun 03:06:01 PM 46.6564 -106.2664 352° North 394 453 32,000  Level Salt Center
Sun 03:07:03 PM 46.7631 -106.2908 351° North 392 451 32,000  Level Salt Center
Sun 03:08:05 PM 46.8703 -106.3147 351° North 390 449 32,000  Level Salt Center
Sun 03:09:07 PM 46.9769 -106.3394 351° North 390 449 32,000  Level Salt Center
Sun 03:10:09 PM 47.0836 -106.3639 351° North 389 448 32,000  Level Salt Center
Sun 03:11:11 PM 47.1903 -106.3886 351° North 388 447 32,000  Level Salt Center
Sun 03:12:13 PM 47.3197 -106.4194 351° North 390 449 32,000  Level Salt Center
Sun 03:13:15 PM 47.4267 -106.4425 352° North 390 449 32,000  Level Salt Center
Sun 03:14:17 PM 47.5328 -106.4678 351° North 388 447 32,000  Level Salt Center
Sun 03:15:19 PM 47.6389 -106.4919 351° North 387 445 32,000  Level Salt Center
Sun 03:16:21 PM 47.7447 -106.5167 351° North 386 444 32,000  Level Salt Center
Sun 03:17:22 PM 47.8514 -106.5417 351° North 387 445 32,000  Level Salt Center
Sun 03:18:24 PM 47.9589 -106.5653 352° North 388 447 32,000  Level Salt Center
Sun 03:19:27 PM 48.0861 -106.5964 351° North 387 445 32,000  Level Salt Center
Sun 03:20:29 PM 48.1928 -106.6217 351° North 387 445 32,000  Level Salt Center
Sun 03:21:31 PM 48.2950 -106.6672 343° North 386 444 32,000  Level Salt Center
Sun 03:22:33 PM 48.3942 -106.7147 342° North 381 438 32,000  Level Salt Center
Sun 03:23:35 PM 48.4964 -106.7661 342° North 382 440 32,000  Level Salt Center
Sun 03:24:37 PM 48.5972 -106.8153 342° North 381 438 32,000  Level Salt Center
Sun 03:25:39 PM 48.7275 -106.8250 357° North 392 451 32,000  Level Salt Center
Sun 03:26:41 PM 48.8389 -106.8153 North 399 459 32,000  Level Salt Center
Sun 03:27:43 PM 48.9497 -106.8036 North 401 461 32,000  Level Salt Center
Sun 03:28:45 PM 49.0606 -106.7939 North 399 459 32,000  Level Salt Center
Sun 03:30:01 PM 49.2000 -106.8167 354° North 410 472 32,000  Level Winnipeg Center
Sun 03:31:01 PM 49.3000 -106.7833 12° North 410 472 32,000  Level Winnipeg Center
Sun 03:32:01 PM 49.4167 -106.7833 360° North 410 472 32,000  Level Winnipeg Center
Sun 03:33:01 PM 49.5333 -106.7833 360° North 420 483 32,000  Level Winnipeg Center
Sun 03:34:02 PM 49.6667 -106.7500 North 420 483 32,000  Level Winnipeg Center
Sun 03:35:01 PM 49.7833 -106.7500 360° North 420 483 32,000  Level Winnipeg Center
Sun 03:36:01 PM 49.8833 -106.7167 12° North 420 483 32,000  Level Winnipeg Center
Sun 03:37:01 PM 50.0167 -106.7167 360° North 430 495 32,000  Level Winnipeg Center
Sun 03:38:01 PM 50.1167 -106.7167 360° North 420 483 32,000  Level Winnipeg Center
Sun 03:39:02 PM 50.2500 -106.7000 North 430 495 32,000  Level Winnipeg Center
Sun 03:40:01 PM 50.3500 -106.6833 North 430 495 32,000  Level Winnipeg Center
Sun 03:41:01 PM 50.4833 -106.6667 North 430 495 32,000  Level Winnipeg Center
Sun 03:42:01 PM 50.6000 -106.6667 360° North 430 495 32,000  Level Winnipeg Center
Sun 03:43:02 PM 50.7333 -106.6333 North 430 495 32,000 -300 Level Winnipeg Center
Sun 03:45:01 PM 50.9667 -106.6333 360° North 440 506 31,100 -1,073 Descending Winnipeg Center
Sun 03:46:01 PM 51.1000 -106.6000 North 470 541 28,800 -2,750 Descending Winnipeg Center
Sun 03:47:01 PM 51.2167 -106.5833 North 470 541 25,600 -3,372 Descending Winnipeg Center
Sun 03:48:02 PM 51.3333 -106.5833 360° North 440 506 22,000 -3,500 Descending Winnipeg Center
Sun 03:49:01 PM 51.4667 -106.5833 360° North 420 483 18,600 -3,681 Descending Winnipeg Center
Sun 03:50:01 PM 51.5833 -106.5500 10° North 400 460 14,700 -3,650 Descending Winnipeg Center
Sun 03:51:01 PM 51.6833 -106.5333 North 380 437 11,300 -3,000 Descending Winnipeg Center
Sun 03:52:01 PM 51.7667 -106.5333 360° North 320 368 8,700 -2,400 Descending Winnipeg Center
Sun 03:53:01 PM 51.8500 -106.5167 North 280 322 6,500 -1,339 Descending Winnipeg Center
Sun 03:54:02 PM 51.9167 -106.5167 360° North 280 322 6,000 -600 Descending Winnipeg Center
Sun 03:55:01 PM 51.9833 -106.5000 North 260 299 5,300 -1,059 Descending Winnipeg Center
Sun 03:56:01 PM 52.0500 -106.4833 North 250 288 3,900 -1,400 Descending Winnipeg Center

Login

Don't have an account? Register now (free) for customized features, flight alerts, and more!